sensor_id;sensor_type;location;lat;lon;timestamp;P1;durP1;ratioP1;P2;durP2;ratioP2
22814;SDS011;11574;51.058;13.712;2024-03-23T00:56:21;10.83;;;7.40;;
22814;SDS011;11574;51.058;13.712;2024-03-23T01:01:22;15.77;;;8.50;;
22814;SDS011;11574;51.058;13.712;2024-03-23T01:06:24;16.00;;;8.30;;
22814;SDS011;11574;51.058;13.712;2024-03-23T01:11:27;20.53;;;10.70;;
22814;SDS011;11574;51.058;13.712;2024-03-23T01:16:29;16.10;;;9.77;;
22814;SDS011;11574;51.058;13.712;2024-03-23T01:21:30;14.50;;;7.63;;
22814;SDS011;11574;51.058;13.712;2024-03-23T01:26:33;16.37;;;7.90;;
22814;SDS011;11574;51.058;13.712;2024-03-23T01:31:35;20.23;;;8.93;;
22814;SDS011;11574;51.058;13.712;2024-03-23T01:36:37;16.67;;;8.57;;
22814;SDS011;11574;51.058;13.712;2024-03-23T01:41:40;16.70;;;8.10;;
22814;SDS011;11574;51.058;13.712;2024-03-23T01:46:43;17.83;;;8.80;;
22814;SDS011;11574;51.058;13.712;2024-03-23T01:51:45;14.53;;;9.27;;
22814;SDS011;11574;51.058;13.712;2024-03-23T01:56:48;20.07;;;11.23;;
22814;SDS011;11574;51.058;13.712;2024-03-23T02:01:49;18.43;;;10.10;;
22814;SDS011;11574;51.058;13.712;2024-03-23T02:06:53;17.77;;;9.93;;
22814;SDS011;11574;51.058;13.712;2024-03-23T02:11:56;17.83;;;10.47;;
22814;SDS011;11574;51.058;13.712;2024-03-23T02:16:57;15.83;;;10.03;;
22814;SDS011;11574;51.058;13.712;2024-03-23T02:21:59;18.40;;;9.83;;
22814;SDS011;11574;51.058;13.712;2024-03-23T02:27:02;20.83;;;12.07;;
22814;SDS011;11574;51.058;13.712;2024-03-23T02:32:04;25.23;;;13.73;;
22814;SDS011;11574;51.058;13.712;2024-03-23T02:37:10;24.43;;;13.47;;
22814;SDS011;11574;51.058;13.712;2024-03-23T02:42:13;23.53;;;13.33;;
22814;SDS011;11574;51.058;13.712;2024-03-23T02:47:17;19.90;;;13.10;;
22814;SDS011;11574;51.058;13.712;2024-03-23T02:52:18;21.17;;;13.00;;
22814;SDS011;11574;51.058;13.712;2024-03-23T02:57:21;21.90;;;13.70;;
22814;SDS011;11574;51.058;13.712;2024-03-23T03:02:23;24.27;;;14.07;;
22814;SDS011;11574;51.058;13.712;2024-03-23T03:07:24;28.70;;;15.77;;
22814;SDS011;11574;51.058;13.712;2024-03-23T03:12:27;29.07;;;15.77;;
22814;SDS011;11574;51.058;13.712;2024-03-23T03:17:29;30.13;;;15.60;;
22814;SDS011;11574;51.058;13.712;2024-03-23T03:22:31;25.67;;;15.37;;
22814;SDS011;11574;51.058;13.712;2024-03-23T03:27:34;30.47;;;16.33;;
22814;SDS011;11574;51.058;13.712;2024-03-23T03:32:36;29.50;;;16.83;;
22814;SDS011;11574;51.058;13.712;2024-03-23T03:37:37;24.80;;;16.10;;
22814;SDS011;11574;51.058;13.712;2024-03-23T03:42:40;32.10;;;17.93;;
22814;SDS011;11574;51.058;13.712;2024-03-23T03:47:42;28.97;;;16.97;;
22814;SDS011;11574;51.058;13.712;2024-03-23T03:52:43;27.73;;;16.27;;
22814;SDS011;11574;51.058;13.712;2024-03-23T03:57:46;28.57;;;17.60;;
22814;SDS011;11574;51.058;13.712;2024-03-23T04:02:48;31.63;;;17.87;;
22814;SDS011;11574;51.058;13.712;2024-03-23T04:07:49;31.97;;;19.33;;
22814;SDS011;11574;51.058;13.712;2024-03-23T04:12:53;30.77;;;17.73;;
22814;SDS011;11574;51.058;13.712;2024-03-23T04:17:55;30.83;;;18.03;;
22814;SDS011;11574;51.058;13.712;2024-03-23T04:22:56;29.93;;;16.87;;
22814;SDS011;11574;51.058;13.712;2024-03-23T04:27:59;30.20;;;18.77;;
22814;SDS011;11574;51.058;13.712;2024-03-23T04:33:01;32.30;;;18.53;;
22814;SDS011;11574;51.058;13.712;2024-03-23T04:38:02;33.73;;;18.87;;
22814;SDS011;11574;51.058;13.712;2024-03-23T04:43:05;28.40;;;14.63;;
22814;SDS011;11574;51.058;13.712;2024-03-23T04:48:07;30.33;;;16.30;;
22814;SDS011;11574;51.058;13.712;2024-03-23T04:53:08;25.93;;;14.83;;
22814;SDS011;11574;51.058;13.712;2024-03-23T04:58:11;28.27;;;17.30;;
22814;SDS011;11574;51.058;13.712;2024-03-23T05:03:13;29.13;;;16.73;;
22814;SDS011;11574;51.058;13.712;2024-03-23T05:08:15;26.90;;;16.03;;
22814;SDS011;11574;51.058;13.712;2024-03-23T05:13:18;28.33;;;16.13;;
22814;SDS011;11574;51.058;13.712;2024-03-23T05:18:20;31.13;;;16.13;;
22814;SDS011;11574;51.058;13.712;2024-03-23T05:23:21;25.43;;;14.00;;
22814;SDS011;11574;51.058;13.712;2024-03-23T05:28:24;23.83;;;14.57;;
22814;SDS011;11574;51.058;13.712;2024-03-23T05:33:26;26.90;;;15.63;;
22814;SDS011;11574;51.058;13.712;2024-03-23T05:38:27;29.73;;;18.03;;
22814;SDS011;11574;51.058;13.712;2024-03-23T05:43:30;29.70;;;16.93;;
22814;SDS011;11574;51.058;13.712;2024-03-23T05:48:32;33.87;;;17.07;;
22814;SDS011;11574;51.058;13.712;2024-03-23T05:53:34;28.63;;;15.93;;
22814;SDS011;11574;51.058;13.712;2024-03-23T05:58:37;29.70;;;17.93;;
22814;SDS011;11574;51.058;13.712;2024-03-23T06:03:39;26.50;;;14.67;;
22814;SDS011;11574;51.058;13.712;2024-03-23T06:08:40;31.03;;;14.77;;
22814;SDS011;11574;51.058;13.712;2024-03-23T06:13:43;24.27;;;14.77;;
22814;SDS011;11574;51.058;13.712;2024-03-23T06:18:45;24.30;;;13.97;;
22814;SDS011;11574;51.058;13.712;2024-03-23T06:23:46;29.07;;;17.63;;
22814;SDS011;11574;51.058;13.712;2024-03-23T06:28:52;33.30;;;17.47;;
22814;SDS011;11574;51.058;13.712;2024-03-23T06:33:54;29.87;;;17.10;;
22814;SDS011;11574;51.058;13.712;2024-03-23T06:38:56;31.37;;;17.23;;
22814;SDS011;11574;51.058;13.712;2024-03-23T06:43:59;30.40;;;17.40;;
22814;SDS011;11574;51.058;13.712;2024-03-23T06:49:01;35.63;;;19.00;;
22814;SDS011;11574;51.058;13.712;2024-03-23T06:54:03;31.80;;;18.37;;
22814;SDS011;11574;51.058;13.712;2024-03-23T06:59:06;39.67;;;21.03;;
22814;SDS011;11574;51.058;13.712;2024-03-23T07:04:08;38.37;;;19.87;;
22814;SDS011;11574;51.058;13.712;2024-03-23T07:09:09;40.97;;;21.03;;
22814;SDS011;11574;51.058;13.712;2024-03-23T07:14:12;36.90;;;20.10;;
22814;SDS011;11574;51.058;13.712;2024-03-23T07:19:14;32.83;;;17.77;;
22814;SDS011;11574;51.058;13.712;2024-03-23T07:24:16;30.13;;;16.53;;
22814;SDS011;11574;51.058;13.712;2024-03-23T07:29:20;29.90;;;16.60;;
22814;SDS011;11574;51.058;13.712;2024-03-23T07:34:23;31.33;;;18.37;;
22814;SDS011;11574;51.058;13.712;2024-03-23T07:39:25;27.13;;;15.57;;
22814;SDS011;11574;51.058;13.712;2024-03-23T07:44:29;25.00;;;15.63;;
22814;SDS011;11574;51.058;13.712;2024-03-23T07:49:31;27.60;;;15.03;;
22814;SDS011;11574;51.058;13.712;2024-03-23T07:54:32;33.07;;;15.60;;
22814;SDS011;11574;51.058;13.712;2024-03-23T07:59:35;39.30;;;15.03;;
22814;SDS011;11574;51.058;13.712;2024-03-23T08:04:36;26.40;;;13.73;;
22814;SDS011;11574;51.058;13.712;2024-03-23T08:09:38;26.80;;;13.10;;
22814;SDS011;11574;51.058;13.712;2024-03-23T08:14:41;20.37;;;11.80;;
22814;SDS011;11574;51.058;13.712;2024-03-23T08:19:43;21.90;;;12.20;;
22814;SDS011;11574;51.058;13.712;2024-03-23T08:24:45;21.50;;;12.20;;
22814;SDS011;11574;51.058;13.712;2024-03-23T08:29:48;24.00;;;12.63;;
22814;SDS011;11574;51.058;13.712;2024-03-23T08:34:49;23.87;;;11.90;;
22814;SDS011;11574;51.058;13.712;2024-03-23T08:39:51;21.53;;;12.33;;
22814;SDS011;11574;51.058;13.712;2024-03-23T08:44:54;21.83;;;12.10;;
22814;SDS011;11574;51.058;13.712;2024-03-23T08:49:56;26.43;;;12.77;;
22814;SDS011;11574;51.058;13.712;2024-03-23T08:54:58;23.23;;;13.80;;
22814;SDS011;11574;51.058;13.712;2024-03-23T09:00:01;27.53;;;15.30;;
22814;SDS011;11574;51.058;13.712;2024-03-23T09:05:03;26.53;;;16.87;;
22814;SDS011;11574;51.058;13.712;2024-03-23T09:10:06;25.73;;;15.33;;
22814;SDS011;11574;51.058;13.712;2024-03-23T09:15:09;21.73;;;13.50;;
22814;SDS011;11574;51.058;13.712;2024-03-23T09:20:11;23.07;;;13.20;;
22814;SDS011;11574;51.058;13.712;2024-03-23T09:25:12;22.30;;;14.03;;
22814;SDS011;11574;51.058;13.712;2024-03-23T09:30:15;14.07;;;9.03;;
22814;SDS011;11574;51.058;13.712;2024-03-23T09:35:17;14.57;;;8.77;;
22814;SDS011;11574;51.058;13.712;2024-03-23T09:40:19;14.20;;;8.63;;
22814;SDS011;11574;51.058;13.712;2024-03-23T09:45:26;19.63;;;9.93;;
22814;SDS011;11574;51.058;13.712;2024-03-23T09:50:28;16.67;;;9.63;;
22814;SDS011;11574;51.058;13.712;2024-03-23T09:55:30;15.37;;;7.03;;
22814;SDS011;11574;51.058;13.712;2024-03-23T10:00:33;11.03;;;3.83;;
22814;SDS011;11574;51.058;13.712;2024-03-23T10:05:35;5.50;;;2.50;;
22814;SDS011;11574;51.058;13.712;2024-03-23T10:10:36;2.87;;;1.30;;
22814;SDS011;11574;51.058;13.712;2024-03-23T10:15:39;8.40;;;0.93;;
22814;SDS011;11574;51.058;13.712;2024-03-23T10:20:41;0.60;;;0.30;;
22814;SDS011;11574;51.058;13.712;2024-03-23T10:25:43;0.80;;;0.37;;
22814;SDS011;11574;51.058;13.712;2024-03-23T10:30:45;1.40;;;0.30;;
22814;SDS011;11574;51.058;13.712;2024-03-23T10:35:47;2.33;;;0.60;;
22814;SDS011;11574;51.058;13.712;2024-03-23T10:40:50;1.13;;;0.67;;
22814;SDS011;11574;51.058;13.712;2024-03-23T10:45:53;1.83;;;0.57;;
22814;SDS011;11574;51.058;13.712;2024-03-23T10:50:54;1.57;;;0.97;;
22814;SDS011;11574;51.058;13.712;2024-03-23T10:55:56;1.23;;;0.40;;
22814;SDS011;11574;51.058;13.712;2024-03-23T11:00:59;0.67;;;0.40;;
22814;SDS011;11574;51.058;13.712;2024-03-23T11:06:01;1.33;;;0.70;;
22814;SDS011;11574;51.058;13.712;2024-03-23T11:11:13;0.53;;;0.30;;
22814;SDS011;11574;51.058;13.712;2024-03-23T11:16:17;2.53;;;0.70;;
22814;SDS011;11574;51.058;13.712;2024-03-23T11:26:39;1.73;;;0.60;;
22814;SDS011;11574;51.058;13.712;2024-03-23T11:31:46;1.07;;;0.60;;
22814;SDS011;11574;51.058;13.712;2024-03-23T11:36:48;0.77;;;0.47;;
22814;SDS011;11574;51.058;13.712;2024-03-23T11:41:51;2.17;;;0.60;;
22814;SDS011;11574;51.058;13.712;2024-03-23T11:46:54;1.23;;;0.60;;
22814;SDS011;11574;51.058;13.712;2024-03-23T11:52:08;0.93;;;0.57;;
22814;SDS011;11574;51.058;13.712;2024-03-23T11:57:09;0.53;;;0.50;;
22814;SDS011;11574;51.058;13.712;2024-03-23T12:02:13;1.80;;;0.60;;
22814;SDS011;11574;51.058;13.712;2024-03-23T12:07:16;0.93;;;0.60;;
22814;SDS011;11574;51.058;13.712;2024-03-23T12:12:19;1.07;;;0.40;;
22814;SDS011;11574;51.058;13.712;2024-03-23T12:17:22;2.00;;;0.97;;
22814;SDS011;11574;51.058;13.712;2024-03-23T12:22:24;1.37;;;0.93;;
22814;SDS011;11574;51.058;13.712;2024-03-23T12:27:26;1.43;;;0.87;;
22814;SDS011;11574;51.058;13.712;2024-03-23T12:32:29;1.47;;;0.70;;
22814;SDS011;11574;51.058;13.712;2024-03-23T12:37:30;1.40;;;0.73;;
22814;SDS011;11574;51.058;13.712;2024-03-23T12:42:32;1.20;;;0.90;;
22814;SDS011;11574;51.058;13.712;2024-03-23T12:47:35;1.63;;;0.90;;
22814;SDS011;11574;51.058;13.712;2024-03-23T12:52:37;4.80;;;1.40;;
22814;SDS011;11574;51.058;13.712;2024-03-23T12:57:38;3.20;;;1.40;;
22814;SDS011;11574;51.058;13.712;2024-03-23T13:02:42;1.67;;;1.50;;
22814;SDS011;11574;51.058;13.712;2024-03-23T13:07:44;1.30;;;1.07;;
22814;SDS011;11574;51.058;13.712;2024-03-23T13:12:45;1.73;;;1.40;;
22814;SDS011;11574;51.058;13.712;2024-03-23T13:17:49;1.80;;;1.30;;
22814;SDS011;11574;51.058;13.712;2024-03-23T13:22:52;1.90;;;1.43;;
22814;SDS011;11574;51.058;13.712;2024-03-23T13:27:54;3.93;;;1.30;;
22814;SDS011;11574;51.058;13.712;2024-03-23T13:32:59;0.90;;;0.80;;
22814;SDS011;11574;51.058;13.712;2024-03-23T13:38:01;4.80;;;1.27;;
22814;SDS011;11574;51.058;13.712;2024-03-23T13:43:03;6.17;;;1.30;;
22814;SDS011;11574;51.058;13.712;2024-03-23T13:48:06;5.20;;;1.30;;
22814;SDS011;11574;51.058;13.712;2024-03-23T13:53:08;4.73;;;1.37;;
22814;SDS011;11574;51.058;13.712;2024-03-23T13:58:10;5.20;;;1.20;;
22814;SDS011;11574;51.058;13.712;2024-03-23T14:03:14;3.43;;;1.47;;
22814;SDS011;11574;51.058;13.712;2024-03-23T14:08:15;3.63;;;1.27;;
22814;SDS011;11574;51.058;13.712;2024-03-23T14:13:17;4.70;;;1.30;;
22814;SDS011;11574;51.058;13.712;2024-03-23T14:18:20;6.17;;;1.20;;
22814;SDS011;11574;51.058;13.712;2024-03-23T14:23:23;5.20;;;1.33;;
22814;SDS011;11574;51.058;13.712;2024-03-23T14:28:24;4.10;;;1.10;;
22814;SDS011;11574;51.058;13.712;2024-03-23T14:33:28;3.30;;;1.00;;
22814;SDS011;11574;51.058;13.712;2024-03-23T14:38:30;5.20;;;1.50;;
22814;SDS011;11574;51.058;13.712;2024-03-23T14:43:32;3.87;;;1.07;;
22814;SDS011;11574;51.058;13.712;2024-03-23T14:48:35;6.43;;;1.40;;
22814;SDS011;11574;51.058;13.712;2024-03-23T14:53:37;6.13;;;1.50;;
22814;SDS011;11574;51.058;13.712;2024-03-23T14:58:40;5.90;;;1.93;;
22814;SDS011;11574;51.058;13.712;2024-03-23T15:03:43;7.93;;;2.53;;
22814;SDS011;11574;51.058;13.712;2024-03-23T15:08:45;3.63;;;1.43;;
22814;SDS011;11574;51.058;13.712;2024-03-23T15:13:49;4.47;;;1.70;;
22814;SDS011;11574;51.058;13.712;2024-03-23T15:18:52;8.93;;;2.37;;
22814;SDS011;11574;51.058;13.712;2024-03-23T15:23:54;4.87;;;1.60;;
22814;SDS011;11574;51.058;13.712;2024-03-23T15:28:56;11.57;;;3.27;;
22814;SDS011;11574;51.058;13.712;2024-03-23T15:34:13;6.30;;;1.80;;
22814;SDS011;11574;51.058;13.712;2024-03-23T15:39:15;8.50;;;1.90;;
22814;SDS011;11574;51.058;13.712;2024-03-23T15:44:17;6.10;;;2.00;;
22814;SDS011;11574;51.058;13.712;2024-03-23T15:49:20;4.63;;;1.90;;
22814;SDS011;11574;51.058;13.712;2024-03-23T15:54:22;8.90;;;1.97;;
22814;SDS011;11574;51.058;13.712;2024-03-23T15:59:24;4.53;;;1.87;;
22814;SDS011;11574;51.058;13.712;2024-03-23T16:04:27;8.10;;;2.17;;
22814;SDS011;11574;51.058;13.712;2024-03-23T16:09:30;5.83;;;2.10;;
22814;SDS011;11574;51.058;13.712;2024-03-23T16:14:31;5.93;;;2.20;;
22814;SDS011;11574;51.058;13.712;2024-03-23T16:19:35;7.47;;;2.43;;
22814;SDS011;11574;51.058;13.712;2024-03-23T16:24:36;9.13;;;3.00;;
22814;SDS011;11574;51.058;13.712;2024-03-23T16:29:38;7.63;;;2.10;;
22814;SDS011;11574;51.058;13.712;2024-03-23T16:34:41;4.20;;;2.30;;
22814;SDS011;11574;51.058;13.712;2024-03-23T16:39:43;5.83;;;1.97;;
22814;SDS011;11574;51.058;13.712;2024-03-23T16:44:45;5.87;;;2.53;;
22814;SDS011;11574;51.058;13.712;2024-03-23T16:49:51;4.27;;;2.13;;
22814;SDS011;11574;51.058;13.712;2024-03-23T16:54:52;5.23;;;2.20;;
22814;SDS011;11574;51.058;13.712;2024-03-23T16:59:54;6.73;;;2.53;;
22814;SDS011;11574;51.058;13.712;2024-03-23T17:04:57;6.10;;;2.30;;
22814;SDS011;11574;51.058;13.712;2024-03-23T17:09:59;4.13;;;2.20;;
22814;SDS011;11574;51.058;13.712;2024-03-23T17:15:03;5.47;;;2.20;;
22814;SDS011;11574;51.058;13.712;2024-03-23T17:20:08;4.20;;;2.50;;
22814;SDS011;11574;51.058;13.712;2024-03-23T17:25:10;4.03;;;2.40;;
22814;SDS011;11574;51.058;13.712;2024-03-23T17:30:12;5.57;;;2.90;;
22814;SDS011;11574;51.058;13.712;2024-03-23T17:35:17;9.10;;;3.63;;
22814;SDS011;11574;51.058;13.712;2024-03-23T17:40:19;7.27;;;2.90;;
22814;SDS011;11574;51.058;13.712;2024-03-23T17:45:21;10.27;;;2.63;;
22814;SDS011;11574;51.058;13.712;2024-03-23T17:50:24;6.23;;;2.73;;
22814;SDS011;11574;51.058;13.712;2024-03-23T17:55:26;8.87;;;3.40;;
22814;SDS011;11574;51.058;13.712;2024-03-23T18:00:27;5.80;;;3.10;;
22814;SDS011;11574;51.058;13.712;2024-03-23T18:05:30;8.53;;;2.90;;
22814;SDS011;11574;51.058;13.712;2024-03-23T18:10:32;6.43;;;2.63;;
22814;SDS011;11574;51.058;13.712;2024-03-23T18:15:34;7.83;;;3.03;;
22814;SDS011;11574;51.058;13.712;2024-03-23T18:20:38;7.30;;;3.53;;
22814;SDS011;11574;51.058;13.712;2024-03-23T18:25:40;6.47;;;3.03;;
22814;SDS011;11574;51.058;13.712;2024-03-23T18:30:41;6.40;;;2.97;;
22814;SDS011;11574;51.058;13.712;2024-03-23T18:35:44;4.23;;;2.60;;
22814;SDS011;11574;51.058;13.712;2024-03-23T18:40:50;6.17;;;3.10;;
22814;SDS011;11574;51.058;13.712;2024-03-23T18:45:51;6.63;;;2.70;;
22814;SDS011;11574;51.058;13.712;2024-03-23T18:50:54;5.63;;;3.13;;
22814;SDS011;11574;51.058;13.712;2024-03-23T18:55:57;5.23;;;2.53;;
22814;SDS011;11574;51.058;13.712;2024-03-23T19:01:01;5.83;;;2.50;;
22814;SDS011;11574;51.058;13.712;2024-03-23T19:06:05;5.47;;;2.87;;
22814;SDS011;11574;51.058;13.712;2024-03-23T19:11:07;4.70;;;2.70;;
22814;SDS011;11574;51.058;13.712;2024-03-23T19:16:09;9.30;;;3.23;;
22814;SDS011;11574;51.058;13.712;2024-03-23T19:21:12;10.20;;;3.40;;
22814;SDS011;11574;51.058;13.712;2024-03-23T19:26:13;7.43;;;3.63;;
22814;SDS011;11574;51.058;13.712;2024-03-23T19:31:15;8.70;;;3.70;;
22814;SDS011;11574;51.058;13.712;2024-03-23T19:36:18;4.90;;;2.53;;
22814;SDS011;11574;51.058;13.712;2024-03-23T19:41:21;4.43;;;2.20;;
22814;SDS011;11574;51.058;13.712;2024-03-23T19:46:22;6.93;;;3.00;;
22814;SDS011;11574;51.058;13.712;2024-03-23T19:51:26;5.97;;;3.20;;
22814;SDS011;11574;51.058;13.712;2024-03-23T19:56:28;5.37;;;2.10;;
22814;SDS011;11574;51.058;13.712;2024-03-23T20:01:29;4.17;;;2.33;;
22814;SDS011;11574;51.058;13.712;2024-03-23T20:06:34;9.13;;;2.47;;
22814;SDS011;11574;51.058;13.712;2024-03-23T20:11:36;5.80;;;2.33;;
22814;SDS011;11574;51.058;13.712;2024-03-23T20:16:38;6.30;;;2.37;;
22814;SDS011;11574;51.058;13.712;2024-03-23T20:21:41;4.30;;;2.57;;
22814;SDS011;11574;51.058;13.712;2024-03-23T20:56:27;6.03;;;2.00;;
22814;SDS011;11574;51.058;13.712;2024-03-23T21:01:29;5.90;;;2.20;;
22814;SDS011;11574;51.058;13.712;2024-03-23T21:06:33;3.47;;;1.93;;
22814;SDS011;11574;51.058;13.712;2024-03-23T21:11:36;4.20;;;2.27;;
22814;SDS011;11574;51.058;13.712;2024-03-23T21:16:38;6.13;;;1.80;;
22814;SDS011;11574;51.058;13.712;2024-03-23T21:21:40;7.90;;;2.30;;
22814;SDS011;11574;51.058;13.712;2024-03-23T21:26:44;5.50;;;2.30;;
22814;SDS011;11574;51.058;13.712;2024-03-23T21:31:45;6.00;;;2.30;;
22814;SDS011;11574;51.058;13.712;2024-03-23T21:36:47;7.27;;;2.63;;
22814;SDS011;11574;51.058;13.712;2024-03-23T21:41:50;6.53;;;3.00;;
22814;SDS011;11574;51.058;13.712;2024-03-23T21:46:52;5.00;;;2.67;;
22814;SDS011;11574;51.058;13.712;2024-03-23T21:51:54;6.47;;;3.37;;
22814;SDS011;11574;51.058;13.712;2024-03-23T21:57:01;8.77;;;2.97;;
22814;SDS011;11574;51.058;13.712;2024-03-23T22:02:03;5.63;;;2.00;;
22814;SDS011;11574;51.058;13.712;2024-03-23T22:07:04;4.73;;;2.10;;
22814;SDS011;11574;51.058;13.712;2024-03-23T22:12:07;5.70;;;1.90;;
22814;SDS011;11574;51.058;13.712;2024-03-23T22:17:09;7.50;;;2.30;;
22814;SDS011;11574;51.058;13.712;2024-03-23T22:22:12;4.23;;;1.57;;
22814;SDS011;11574;51.058;13.712;2024-03-23T22:27:16;6.00;;;2.07;;
22814;SDS011;11574;51.058;13.712;2024-03-23T22:32:17;4.63;;;2.10;;
22814;SDS011;11574;51.058;13.712;2024-03-23T22:37:19;3.77;;;1.97;;
22814;SDS011;11574;51.058;13.712;2024-03-23T22:42:22;3.30;;;1.23;;
22814;SDS011;11574;51.058;13.712;2024-03-23T22:47:24;2.30;;;1.20;;
22814;SDS011;11574;51.058;13.712;2024-03-23T22:52:25;1.90;;;1.23;;
22814;SDS011;11574;51.058;13.712;2024-03-23T22:57:28;4.73;;;1.90;;
22814;SDS011;11574;51.058;13.712;2024-03-23T23:02:30;5.07;;;2.20;;
22814;SDS011;11574;51.058;13.712;2024-03-23T23:07:31;3.87;;;2.27;;
22814;SDS011;11574;51.058;13.712;2024-03-23T23:12:35;4.00;;;2.00;;
22814;SDS011;11574;51.058;13.712;2024-03-23T23:17:36;2.93;;;1.20;;
22814;SDS011;11574;51.058;13.712;2024-03-23T23:22:38;16.97;;;6.77;;
22814;SDS011;11574;51.058;13.712;2024-03-23T23:27:41;15.53;;;5.87;;
22814;SDS011;11574;51.058;13.712;2024-03-23T23:32:43;15.67;;;5.93;;
22814;SDS011;11574;51.058;13.712;2024-03-23T23:37:45;13.77;;;5.00;;
22814;SDS011;11574;51.058;13.712;2024-03-23T23:42:47;33.70;;;12.27;;
22814;SDS011;11574;51.058;13.712;2024-03-23T23:47:49;13.10;;;5.23;;
22814;SDS011;11574;51.058;13.712;2024-03-23T23:52:51;17.10;;;6.70;;
22814;SDS011;11574;51.058;13.712;2024-03-23T23:57:54;11.37;;;4.43;;
